西安咸陽国際空港の過去48時間の天気

西安咸陽国際空港 (Xian/Xianyang)

現在時刻: 12/4 13:54 CST (12/4 05:54 UTC) 以下の時間は現地時間です。

過去48時間のMETAR気象情報
時間 風向 風速(m/s) 視程 気温(℃) 湿度(%) 気圧(hPa) 天気現象
4 13:00 北東 3 10km以上 1 64 1033
4 12:00 北東 3 9000m 1 69 1034
4 11:00 北東 4 8000m 0 69 1035
4 10:00 北東 4 4200m 0 86 1035 弱い雪 もや
4 09:00 2 4500m -1 100 1035 もや
4 08:00 北北東 1 4500m -1 100 1035 もや
4 07:00 西 1 6000m -1 100 1035
4 06:00 西 1 6000m -1 100 1035
4 05:00 西 1 6000m -1 100 1035
4 04:00 西 1 6000m -1 93 1035
4 03:00 西南西 1 6000m -1 93 1036
4 02:00 西 1 6000m -1 93 1036
4 01:00 西 1 7000m -1 93 1036
4 00:00 西南西 1 8000m -1 93 1037
3 23:00 西 1 8000m -1 93 1038
3 22:00 西 1 10km以上 -1 86 1038
3 21:00 北西 2 10km以上 -1 86 1038
3 20:00 北西 2 10km以上 -1 86 1037
3 19:00 北西 1 10km以上 -1 86 1037
3 18:00 北北西 2 10km以上 -1 80 1037
3 17:00 東南東 3 10km以上 -1 80 1037
3 16:00 3 10km以上 0 74 1037 弱い雪
3 15:00 4 10km以上 0 64 1037
3 14:00 4 10km以上 1 51 1037
3 13:00 北東 4 10km以上 1 60 1037
3 12:00 東北東 6 10km以上 1 60 1038 弱い雪
3 11:00 東北東 4 10km以上 1 64 1039
3 10:00 東北東 5 10km以上 0 64 1039
3 09:00 北東 4 10km以上 0 69 1038
3 08:00 東北東 6 10km以上 0 69 1037
3 07:00 東北東 5 10km以上 1 64 1037
3 06:00 東北東 5 10km以上 1 69 1037
3 05:00 6 10km以上 1 69 1037
3 04:00 5 8000m 2 75 1038
ZLXY 040500Z 05003MPS 010V070 9999 SCT050 01/M05 Q1033 NOSIG
ZLXY 040400Z 04003MPS 9000 SCT050 01/M04 Q1034 NOSIG
ZLXY 040300Z 04004MPS 8000 SCT050 00/M05 Q1035 NOSIG
ZLXY 040200Z 05004MPS 4200 -SN BR SCT040 OVC070 M00/M02 Q1035 NOSIG
ZLXY 040100Z 01002MPS 4500 BR FEW040 OVC070 M01/M01 Q1035 NOSIG
ZLXY 040000Z 02001MPS 4500 BR OVC050 M01/M01 Q1035 NOSIG
ZLXY 032300Z 27001MPS 6000 OVC040 M01/M01 Q1035 NOSIG
ZLXY 032200Z 28001MPS 6000 OVC040 M01/M01 Q1035 NOSIG
ZLXY 032100Z 27001MPS 6000 OVC040 M01/M01 Q1035 NOSIG
ZLXY 032000Z 27001MPS 6000 OVC050 M01/M02 Q1035 NOSIG
ZLXY 031900Z 24001MPS 6000 OVC050 M01/M02 Q1036 NOSIG
ZLXY 031800Z 28001MPS 6000 BKN050 M01/M02 Q1036 NOSIG
ZLXY 031700Z 26001MPS 7000 OVC050 M01/M02 Q1036 NOSIG
ZLXY 031600Z 25001MPS 8000 OVC060 M01/M02 Q1037 NOSIG
ZLXY 031500Z 27001MPS 8000 OVC070 M01/M02 Q1038 NOSIG
ZLXY 031400Z 27001MPS 9999 OVC070 M01/M03 Q1038 NOSIG
ZLXY 031300Z 32002MPS 9999 OVC070 M01/M03 Q1038 NOSIG
ZLXY 031200Z 31002MPS 9999 OVC070 M01/M03 Q1037 NOSIG
ZLXY 031100Z 32001MPS 9999 OVC070 M01/M03 Q1037 NOSIG
ZLXY 031000Z 34002MPS CAVOK M01/M04 Q1037 NOSIG
ZLXY 030900Z 12003MPS 080V170 9999 SCT070 M01/M04 Q1037 NOSIG
ZLXY 030800Z 10003MPS 070V150 9999 -SN FEW050 OVC070 M00/M04 Q1037 NOSIG
ZLXY 030700Z 10004MPS 060V140 9999 SCT050 OVC070 00/M06 Q1037 NOSIG
ZLXY 030600Z 08004MPS 9999 SCT050 OVC070 01/M08 Q1037 NOSIG
ZLXY 030500Z 05004MPS 9999 FEW050 OVC070 01/M06 Q1037 NOSIG
ZLXY 030400Z 07006MPS 9999 -SN FEW040 OVC050 01/M06 Q1038 NOSIG
ZLXY 030300Z 07004MPS 9999 OVC060 01/M05 Q1039 NOSIG
ZLXY 030200Z 07005MPS 9999 OVC060 00/M06 Q1039 NOSIG
ZLXY 030100Z 05004MPS 9999 OVC050 00/M05 Q1038 NOSIG
ZLXY 030000Z 06006MPS 9999 OVC050 00/M05 Q1037 NOSIG
ZLXY 022300Z 07005MPS 9999 OVC050 01/M05 Q1037 NOSIG
ZLXY 022200Z 07005MPS 9999 OVC050 01/M04 Q1037 NOSIG
ZLXY 022100Z 08006MPS 9999 FEW040 OVC060 01/M04 Q1037 NOSIG
ZLXY 022000Z 09005MPS 8000 FEW030 OVC060 02/M02 Q1038 NOSIG